createdAt,value
2022-08-03T00:02:20.123Z,27.00
2022-08-03T00:04:48.354Z,27.10
2022-08-03T00:07:18.126Z,27.10
2022-08-03T00:09:46.377Z,26.90
2022-08-03T00:12:14.957Z,27.20
2022-08-03T00:14:43.318Z,27.10
2022-08-03T00:17:11.514Z,27.00
2022-08-03T00:19:39.589Z,27.00
2022-08-03T00:22:07.622Z,27.30
2022-08-03T00:24:37.140Z,26.90
2022-08-03T00:27:05.493Z,27.40
2022-08-03T00:29:33.548Z,27.00
2022-08-03T00:32:21.604Z,27.10
2022-08-03T00:34:59.099Z,27.10
2022-08-03T00:37:40.660Z,26.70
2022-08-03T00:40:13.748Z,27.00
2022-08-03T00:42:50.534Z,27.20
2022-08-03T00:45:19.302Z,27.10
2022-08-03T00:47:47.533Z,26.70
2022-08-03T00:50:16.276Z,27.00
2022-08-03T00:52:44.865Z,27.10
2022-08-03T00:55:14.858Z,27.10
2022-08-03T00:57:44.019Z,27.00
2022-08-03T01:00:15.745Z,27.10
2022-08-03T01:02:43.898Z,27.00
2022-08-03T01:05:12.762Z,27.20
2022-08-03T01:07:58.234Z,27.40
2022-08-03T01:10:41.245Z,27.00
2022-08-03T01:14:02.059Z,27.00
2022-08-03T01:16:19.681Z,27.00
2022-08-03T01:18:55.082Z,26.90
2022-08-03T01:21:29.037Z,26.90
2022-08-03T01:24:20.492Z,27.10
2022-08-03T01:27:05.843Z,27.10
2022-08-03T01:29:59.489Z,26.90
2022-08-03T01:32:53.615Z,27.00
2022-08-03T01:35:29.655Z,27.00
2022-08-03T01:38:03.343Z,27.00
2022-08-03T01:40:35.489Z,26.90
2022-08-03T01:43:05.798Z,27.10
2022-08-03T01:45:37.642Z,27.00
2022-08-03T01:48:07.754Z,26.80
2022-08-03T01:50:36.602Z,27.10
2022-08-03T01:53:05.440Z,26.60
2022-08-03T01:55:35.812Z,26.60
2022-08-03T01:58:07.833Z,26.60
2022-08-03T02:00:39.711Z,27.00
2022-08-03T02:03:09.748Z,27.00
2022-08-03T02:05:40.787Z,26.60
2022-08-03T02:08:13.813Z,27.00
2022-08-03T02:10:44.343Z,27.10
2022-08-03T02:13:13.966Z,26.90
2022-08-03T02:15:44.770Z,26.50
2022-08-03T02:18:14.269Z,27.00
2022-08-03T02:20:44.143Z,26.90
2022-08-03T02:23:12.480Z,27.00
2022-08-03T02:25:47.187Z,26.80
2022-08-03T02:28:20.849Z,26.80
2022-08-03T02:30:56.096Z,26.80
2022-08-03T02:33:28.632Z,26.50
2022-08-03T02:35:58.817Z,27.00
2022-08-03T02:38:32.942Z,26.80
2022-08-03T02:41:06.460Z,26.90
2022-08-03T02:44:05.409Z,26.80
2022-08-03T02:46:32.421Z,26.80
2022-08-03T02:49:49.960Z,26.80
2022-08-03T02:51:54.435Z,27.00
2022-08-03T02:54:25.162Z,26.80
2022-08-03T02:56:57.646Z,26.80
2022-08-03T02:59:28.025Z,26.70
2022-08-03T03:01:57.682Z,26.70
2022-08-03T03:04:32.929Z,26.50
2022-08-03T03:07:04.466Z,26.80
2022-08-03T03:09:40.220Z,26.80
2022-08-03T03:12:12.983Z,26.80
2022-08-03T03:14:41.552Z,26.60
2022-08-03T03:17:12.791Z,26.70
2022-08-03T03:19:42.758Z,26.70
2022-08-03T03:22:11.948Z,27.00
2022-08-03T03:24:42.977Z,26.50
2022-08-03T03:27:11.368Z,27.00
2022-08-03T03:29:45.431Z,26.80
2022-08-03T03:32:15.163Z,26.80
2022-08-03T03:34:44.825Z,26.70
2022-08-03T03:37:12.928Z,26.50
2022-08-03T03:39:41.068Z,26.70
2022-08-03T03:42:09.319Z,26.60
2022-08-03T03:44:37.464Z,26.50
2022-08-03T03:47:05.740Z,26.80
2022-08-03T03:49:35.496Z,26.80
2022-08-03T03:52:03.863Z,26.80
2022-08-03T03:54:41.848Z,26.60
2022-08-03T03:57:13.142Z,26.60
2022-08-03T03:59:43.170Z,26.80
2022-08-03T04:02:12.664Z,26.80
2022-08-03T04:05:00.115Z,26.90
2022-08-03T04:07:46.977Z,26.50
2022-08-03T04:10:38.876Z,26.60
2022-08-03T04:13:10.936Z,26.70
2022-08-03T04:15:40.680Z,26.70
2022-08-03T04:18:12.929Z,27.00
2022-08-03T04:20:47.737Z,26.70
2022-08-03T04:23:19.730Z,26.60
2022-08-03T04:25:50.043Z,27.00
2022-08-03T04:28:30.885Z,26.90
2022-08-03T04:31:00.984Z,26.80
2022-08-03T04:33:32.613Z,26.80
2022-08-03T04:36:05.784Z,26.80
2022-08-03T04:38:40.154Z,26.70
2022-08-03T04:41:09.937Z,25.90
2022-08-03T04:43:41.748Z,26.10
2022-08-03T04:46:11.014Z,26.10
2022-08-03T04:48:44.617Z,26.00
2022-08-03T04:51:15.518Z,25.60
2022-08-03T04:53:44.626Z,25.40
2022-08-03T04:56:12.950Z,25.50
2022-08-03T04:58:41.024Z,25.70
2022-08-03T05:01:09.192Z,26.10
2022-08-03T05:03:37.341Z,26.10
2022-08-03T05:06:11.000Z,26.20
2022-08-03T05:08:46.125Z,26.50
2022-08-03T05:11:15.629Z,26.50
2022-08-03T05:13:43.788Z,26.40
2022-08-03T05:16:12.054Z,26.30
2022-08-03T05:18:40.506Z,26.20
2022-08-03T05:21:09.217Z,26.40
2022-08-03T05:23:37.820Z,26.70
2022-08-03T05:26:07.216Z,26.40
2022-08-03T05:28:35.270Z,26.40
2022-08-03T05:31:03.716Z,26.30
2022-08-03T05:33:31.804Z,26.20
2022-08-03T05:36:04.256Z,26.40
2022-08-03T05:38:34.657Z,26.60
2022-08-03T05:41:22.580Z,26.30
2022-08-03T05:43:54.760Z,26.80
2022-08-03T05:46:23.673Z,26.60
2022-08-03T05:48:52.203Z,26.50
2022-08-03T05:51:20.438Z,26.40
2022-08-03T05:53:48.546Z,26.20
2022-08-03T05:56:17.117Z,26.30
2022-08-03T05:58:48.483Z,26.40
2022-08-03T06:01:18.470Z,26.50
2022-08-03T06:03:47.342Z,26.10
2022-08-03T06:06:15.768Z,26.60
2022-08-03T06:08:46.013Z,26.70
2022-08-03T06:11:14.478Z,26.70
2022-08-03T06:13:43.200Z,26.80
2022-08-03T06:16:11.645Z,26.60
2022-08-03T06:18:41.422Z,26.60
2022-08-03T06:21:15.602Z,26.70
2022-08-03T06:23:53.808Z,26.80
2022-08-03T06:26:28.790Z,26.80
2022-08-03T06:28:57.131Z,26.90
2022-08-03T06:31:32.975Z,26.80
2022-08-03T06:34:32.473Z,26.70
2022-08-03T06:36:57.441Z,26.80
2022-08-03T06:39:29.964Z,27.00
2022-08-03T06:41:58.645Z,26.90
2022-08-03T06:44:26.767Z,26.90
2022-08-03T06:46:54.837Z,27.20
2022-08-03T06:49:24.279Z,27.00
2022-08-03T06:52:04.505Z,27.00
2022-08-03T06:54:37.447Z,27.00
2022-08-03T06:57:08.026Z,27.00
2022-08-03T07:00:09.050Z,26.90
2022-08-03T07:02:24.111Z,27.10
2022-08-03T07:04:58.315Z,27.40
2022-08-03T07:07:26.507Z,27.00
2022-08-03T07:09:57.697Z,27.20
2022-08-03T07:12:28.117Z,27.50
2022-08-03T07:15:00.676Z,27.10
2022-08-03T07:17:30.383Z,27.00
2022-08-03T07:20:00.572Z,27.20
2022-08-03T07:22:29.342Z,27.10
2022-08-03T07:24:57.917Z,27.00
2022-08-03T07:27:28.446Z,27.20
2022-08-03T07:29:57.485Z,27.30
2022-08-03T07:32:25.984Z,27.20
2022-08-03T07:34:59.976Z,27.20
2022-08-03T07:37:31.041Z,26.90
2022-08-03T07:40:00.201Z,27.20
2022-08-03T07:42:28.375Z,27.20
2022-08-03T07:44:57.190Z,27.30
2022-08-03T07:47:35.239Z,27.00
2022-08-03T07:50:06.417Z,27.20
2022-08-03T07:52:51.434Z,27.50
2022-08-03T07:55:21.742Z,27.20
2022-08-03T07:58:00.879Z,26.90
2022-08-03T08:00:28.942Z,27.30
2022-08-03T08:02:56.986Z,27.30
2022-08-03T08:05:25.338Z,27.00
2022-08-03T08:07:55.368Z,27.20
2022-08-03T08:10:23.538Z,27.30
2022-08-03T08:12:51.765Z,27.20
2022-08-03T08:15:19.974Z,27.00
2022-08-03T08:17:50.591Z,27.10
2022-08-03T08:20:23.856Z,27.40
2022-08-03T08:23:01.186Z,27.70
2022-08-03T08:25:32.548Z,27.20
2022-08-03T08:28:31.449Z,27.70
2022-08-03T08:30:52.014Z,27.70
2022-08-03T08:33:22.543Z,27.70
2022-08-03T08:35:51.204Z,27.90
2022-08-03T08:38:20.625Z,27.60
2022-08-03T08:40:49.939Z,27.50
2022-08-03T08:43:18.065Z,27.80
2022-08-03T08:45:47.953Z,27.70
2022-08-03T08:48:16.719Z,27.60
2022-08-03T08:50:45.194Z,27.60
2022-08-03T08:53:18.177Z,27.90
2022-08-03T08:55:58.921Z,27.90
2022-08-03T08:58:32.485Z,27.60
2022-08-03T09:01:00.826Z,28.10
2022-08-03T09:03:30.421Z,27.90
2022-08-03T09:06:02.037Z,27.80
2022-08-03T09:08:30.817Z,28.10
2022-08-03T09:11:00.469Z,28.00
2022-08-03T09:13:29.177Z,28.00
2022-08-03T09:16:15.853Z,27.90
2022-08-03T09:18:46.731Z,27.90
2022-08-03T09:21:36.262Z,27.50
2022-08-03T09:24:16.387Z,27.80
2022-08-03T09:26:55.210Z,27.60
2022-08-03T09:29:23.573Z,28.00
2022-08-03T09:32:02.974Z,28.00
2022-08-03T09:34:31.756Z,28.00
2022-08-03T09:36:59.811Z,27.90
2022-08-03T09:39:41.030Z,27.90
2022-08-03T09:42:15.335Z,27.90
2022-08-03T09:44:45.358Z,27.70
2022-08-03T09:47:16.008Z,28.10
2022-08-03T09:49:58.161Z,27.50
2022-08-03T09:52:39.163Z,27.70
2022-08-03T09:56:05.164Z,28.00
2022-08-03T09:58:10.312Z,28.10
2022-08-03T10:00:55.683Z,28.10
2022-08-03T10:03:25.198Z,28.00
2022-08-03T10:05:59.034Z,28.20
2022-08-03T10:08:27.535Z,28.20
2022-08-03T10:10:57.838Z,27.70
2022-08-03T10:13:27.310Z,28.10
2022-08-03T10:16:24.079Z,27.90
2022-08-03T10:18:43.410Z,27.90
2022-08-03T10:21:14.174Z,28.20
2022-08-03T10:23:43.014Z,28.00
2022-08-03T10:26:17.584Z,28.00
2022-08-03T10:28:51.450Z,28.30
2022-08-03T10:31:21.681Z,28.00
2022-08-03T10:33:53.553Z,27.90
2022-08-03T10:36:25.155Z,28.20
2022-08-03T10:38:57.404Z,28.20
2022-08-03T10:41:33.096Z,28.30
2022-08-03T10:44:07.018Z,28.50
2022-08-03T10:46:39.230Z,28.50
2022-08-03T10:49:11.135Z,28.40
2022-08-03T10:51:40.032Z,28.60
2022-08-03T10:54:10.402Z,28.70
2022-08-03T10:57:03.399Z,28.70
2022-08-03T11:00:11.860Z,28.50
2022-08-03T11:03:11.804Z,28.70
2022-08-03T11:05:44.416Z,28.90
2022-08-03T11:08:34.711Z,28.80
2022-08-03T11:11:28.802Z,28.60
2022-08-03T11:14:04.478Z,28.80
2022-08-03T11:16:36.869Z,28.70
2022-08-03T11:19:07.910Z,28.70
2022-08-03T11:21:59.315Z,28.80
2022-08-03T11:25:01.724Z,28.90
2022-08-03T11:27:33.434Z,28.80
2022-08-03T11:30:05.880Z,28.80
2022-08-03T11:32:58.675Z,28.90
2022-08-03T11:35:29.940Z,29.40
2022-08-03T11:38:07.880Z,29.20
2022-08-03T11:40:38.650Z,29.00
2022-08-03T11:43:08.433Z,29.10
2022-08-03T11:45:37.768Z,29.00
2022-08-03T11:48:17.657Z,29.20
2022-08-03T11:50:46.272Z,29.40
2022-08-03T11:53:18.235Z,28.90
2022-08-03T11:55:48.898Z,29.50
2022-08-03T11:58:58.249Z,29.60
2022-08-03T12:01:11.302Z,29.10
2022-08-03T12:03:40.779Z,29.30
2022-08-03T12:06:11.510Z,29.10
2022-08-03T12:08:40.559Z,29.50
2022-08-03T12:11:11.538Z,29.50
2022-08-03T12:14:45.435Z,29.50
2022-08-03T12:16:32.161Z,29.20
2022-08-03T12:19:04.757Z,29.30
2022-08-03T12:21:33.539Z,29.50
2022-08-03T12:24:04.573Z,29.40
2022-08-03T12:26:54.490Z,29.40
2022-08-03T12:29:27.410Z,30.00
2022-08-03T12:31:56.315Z,29.60
2022-08-03T12:34:26.065Z,29.30
2022-08-03T12:36:59.996Z,29.90
2022-08-03T12:39:31.015Z,29.50
2022-08-03T12:41:59.363Z,29.70
2022-08-03T12:44:32.136Z,29.90
2022-08-03T12:47:01.566Z,29.60
2022-08-03T12:49:46.870Z,29.60
2022-08-03T12:52:16.108Z,29.40
2022-08-03T12:54:45.810Z,30.00
2022-08-03T12:57:16.043Z,29.80
2022-08-03T12:59:52.756Z,29.40
2022-08-03T13:02:23.565Z,29.70
2022-08-03T13:04:55.275Z,29.70
2022-08-03T13:07:24.033Z,30.10
2022-08-03T13:09:54.352Z,29.80
2022-08-03T13:12:24.244Z,29.80
2022-08-03T13:14:55.697Z,30.00
2022-08-03T13:17:24.449Z,29.90
2022-08-03T13:19:53.993Z,29.70
2022-08-03T13:22:24.406Z,30.10
2022-08-03T13:24:55.736Z,30.10
2022-08-03T13:28:04.260Z,30.00
2022-08-03T13:30:12.941Z,29.70
2022-08-03T13:32:41.368Z,30.30
2022-08-03T13:35:11.871Z,29.80
2022-08-03T13:37:44.649Z,30.00
2022-08-03T13:40:16.906Z,29.80
2022-08-03T13:42:45.133Z,29.90
2022-08-03T13:45:13.266Z,30.00
2022-08-03T13:47:41.386Z,29.60
2022-08-03T13:50:10.995Z,29.60
2022-08-03T13:52:39.008Z,29.50
2022-08-03T13:55:09.003Z,29.50
2022-08-03T13:58:06.190Z,29.40
2022-08-03T14:00:27.595Z,29.50
2022-08-03T14:03:05.289Z,29.50
2022-08-03T14:05:39.194Z,29.50
2022-08-03T14:08:08.233Z,29.60
2022-08-03T14:10:38.696Z,29.70
2022-08-03T14:13:07.744Z,29.30
2022-08-03T14:15:37.472Z,29.50
2022-08-03T14:18:15.756Z,29.40
2022-08-03T14:21:02.010Z,29.70
2022-08-03T14:23:34.220Z,29.50
2022-08-03T14:26:02.356Z,29.40
2022-08-03T14:28:30.404Z,29.70
2022-08-03T14:30:58.484Z,29.60
2022-08-03T14:33:28.285Z,29.80
2022-08-03T14:35:57.973Z,29.90
2022-08-03T14:38:26.287Z,29.80
2022-08-03T14:40:54.456Z,29.90
2022-08-03T14:43:22.630Z,29.80
2022-08-03T14:45:53.200Z,29.90
2022-08-03T14:50:34.712Z,30.00
2022-08-03T14:51:13.248Z,29.90
2022-08-03T14:53:41.630Z,30.10
2022-08-03T14:56:10.860Z,30.10
2022-08-03T14:58:39.324Z,29.70
2022-08-03T15:02:03.486Z,29.90
2022-08-03T15:03:56.686Z,29.70
2022-08-03T15:06:26.158Z,29.90
2022-08-03T15:09:24.252Z,30.00
2022-08-03T15:11:42.635Z,29.70
2022-08-03T15:14:10.889Z,29.90
2022-08-03T15:16:43.342Z,30.10
2022-08-03T15:20:00.723Z,29.70
2022-08-03T15:22:01.249Z,29.80
2022-08-03T15:24:30.264Z,29.60
2022-08-03T15:26:58.389Z,29.80
2022-08-03T15:30:08.744Z,29.60
2022-08-03T15:32:14.644Z,29.60
2022-08-03T15:34:50.293Z,29.80
2022-08-03T15:37:21.176Z,29.50
2022-08-03T15:39:59.176Z,29.70
2022-08-03T15:42:30.197Z,29.80
2022-08-03T15:44:58.419Z,29.70
2022-08-03T15:47:27.001Z,29.70
2022-08-03T15:49:55.091Z,29.30
2022-08-03T15:52:24.526Z,29.70
2022-08-03T15:54:52.644Z,29.30
2022-08-03T15:57:21.343Z,29.60
2022-08-03T15:59:49.669Z,29.80
2022-08-03T16:02:17.847Z,29.40
2022-08-03T16:04:45.919Z,29.60
2022-08-03T16:07:15.579Z,29.40
2022-08-03T16:09:45.083Z,29.60
2022-08-03T16:12:16.020Z,29.40
2022-08-03T16:14:53.987Z,29.30
2022-08-03T16:17:24.312Z,29.60
2022-08-03T16:19:55.206Z,29.70
2022-08-03T16:22:23.968Z,29.50
2022-08-03T16:24:54.074Z,29.50
2022-08-03T16:27:58.201Z,29.40
2022-08-03T16:30:15.332Z,29.50
2022-08-03T16:32:44.142Z,29.80
2022-08-03T16:35:19.547Z,29.50
2022-08-03T16:37:56.564Z,29.70
2022-08-03T16:40:27.251Z,29.30
2022-08-03T16:42:55.345Z,29.60
2022-08-03T16:45:23.737Z,29.40
2022-08-03T16:48:01.640Z,29.20
2022-08-03T16:50:35.363Z,29.20
2022-08-03T16:53:08.871Z,29.10
2022-08-03T16:55:52.027Z,29.30
2022-08-03T16:58:24.419Z,28.90
2022-08-03T17:01:22.507Z,29.00
2022-08-03T17:04:02.503Z,29.30
2022-08-03T17:06:35.024Z,29.60
2022-08-03T17:09:08.881Z,29.30
2022-08-03T17:11:43.935Z,29.30
2022-08-03T17:14:15.296Z,29.40
2022-08-03T17:16:52.549Z,29.20
2022-08-03T17:19:24.184Z,29.30
2022-08-03T17:22:04.036Z,29.20
2022-08-03T17:24:35.008Z,29.40
2022-08-03T17:27:09.390Z,29.30
2022-08-03T17:30:03.787Z,29.60
2022-08-03T17:32:36.647Z,29.40
2022-08-03T17:35:11.326Z,29.10
2022-08-03T17:37:57.495Z,28.70
2022-08-03T17:40:30.918Z,29.00
2022-08-03T17:43:01.557Z,29.00
2022-08-03T17:45:52.957Z,29.40
2022-08-03T17:48:25.257Z,29.40
2022-08-03T17:50:57.477Z,29.20
2022-08-03T17:53:31.527Z,29.40
2022-08-03T17:56:40.249Z,29.40
2022-08-03T17:59:15.663Z,29.30
2022-08-03T18:02:26.442Z,28.70
2022-08-03T18:05:16.458Z,29.10
2022-08-03T18:07:49.470Z,28.80
2022-08-03T18:10:28.236Z,28.70
2022-08-03T18:13:04.197Z,28.70
2022-08-03T18:15:44.896Z,29.00
2022-08-03T18:18:17.271Z,28.90
2022-08-03T18:21:04.642Z,28.90
2022-08-03T18:23:37.373Z,28.60
2022-08-03T18:26:11.889Z,29.10
2022-08-03T18:28:41.528Z,29.20
2022-08-03T18:32:00.299Z,29.00
2022-08-03T18:36:55.824Z,28.90
2022-08-03T18:39:24.391Z,28.70
2022-08-03T18:41:52.918Z,28.70
2022-08-03T18:44:46.622Z,28.90
2022-08-03T18:47:25.291Z,28.80
2022-08-03T18:50:14.291Z,28.70
2022-08-03T18:52:56.110Z,28.50
2022-08-03T18:55:33.113Z,28.50
2022-08-03T18:58:18.240Z,28.60
2022-08-03T19:00:55.096Z,28.40
2022-08-03T19:03:41.593Z,28.60
2022-08-03T19:06:20.305Z,28.30
2022-08-03T19:08:55.630Z,28.80
2022-08-03T19:11:30.088Z,28.50
2022-08-03T19:14:28.757Z,28.80
2022-08-03T19:17:06.689Z,29.00
2022-08-03T19:19:44.298Z,28.50
2022-08-03T19:22:16.057Z,28.50
2022-08-03T19:24:47.670Z,28.60
2022-08-03T19:27:16.263Z,28.60
2022-08-03T19:29:58.428Z,28.50
2022-08-03T19:32:30.573Z,28.80
2022-08-03T19:35:02.588Z,28.40
2022-08-03T19:37:38.413Z,28.50
2022-08-03T19:40:10.946Z,29.00
2022-08-03T19:42:46.372Z,28.80
2022-08-03T19:45:23.773Z,28.70
2022-08-03T19:48:15.788Z,28.60
2022-08-03T19:50:50.992Z,28.50
2022-08-03T19:53:21.504Z,28.90
2022-08-03T19:55:55.018Z,28.50
2022-08-03T19:58:28.698Z,28.50
2022-08-03T20:00:57.146Z,29.10
2022-08-03T20:03:42.909Z,28.50
2022-08-03T20:06:16.918Z,28.90
2022-08-03T20:08:45.277Z,28.70
2022-08-03T20:11:19.479Z,28.70
2022-08-03T20:13:51.469Z,29.00
2022-08-03T20:16:19.546Z,28.80
2022-08-03T20:18:47.664Z,28.60
2022-08-03T20:21:18.701Z,28.80
2022-08-03T20:24:01.790Z,29.10
2022-08-03T20:26:39.825Z,28.80
2022-08-03T20:29:14.306Z,28.80
2022-08-03T20:31:42.417Z,28.90
2022-08-03T20:34:10.437Z,29.00
2022-08-03T20:36:39.881Z,28.90
2022-08-03T20:39:09.133Z,28.90
2022-08-03T20:41:38.400Z,29.10
2022-08-03T20:44:07.824Z,28.60
2022-08-03T20:46:50.155Z,29.20
2022-08-03T20:49:23.355Z,29.00
2022-08-03T20:51:53.873Z,28.80
2022-08-03T20:54:30.971Z,28.70
2022-08-03T20:57:03.698Z,28.60
2022-08-03T20:59:46.828Z,28.60
2022-08-03T21:02:19.354Z,29.30
2022-08-03T21:04:56.833Z,29.00
2022-08-03T21:08:04.047Z,28.70
2022-08-03T21:10:18.609Z,29.10
2022-08-03T21:12:52.680Z,29.20
2022-08-03T21:12:58.401Z,28.70
2022-08-03T21:16:02.934Z,28.80
2022-08-03T21:18:17.543Z,28.70
2022-08-03T21:20:47.907Z,29.20
2022-08-03T21:23:37.074Z,29.10
2022-08-03T21:26:12.179Z,28.70
2022-08-03T21:28:40.574Z,29.20
2022-08-03T21:31:10.149Z,28.80
2022-08-03T21:33:38.274Z,28.80
2022-08-03T21:36:09.101Z,28.90
2022-08-03T21:38:38.485Z,28.80
2022-08-03T21:41:08.726Z,28.70
2022-08-03T21:43:36.824Z,29.00
2022-08-03T21:46:07.500Z,28.80
2022-08-03T21:48:39.393Z,28.50
2022-08-03T21:51:09.805Z,28.50
2022-08-03T21:54:02.790Z,28.70
2022-08-03T21:56:32.222Z,28.60
2022-08-03T21:59:06.638Z,28.60
2022-08-03T22:01:37.016Z,28.80
2022-08-03T22:04:07.241Z,28.70
2022-08-03T22:06:39.825Z,28.60
2022-08-03T22:09:09.830Z,28.70
2022-08-03T22:11:38.703Z,28.60
2022-08-03T22:14:06.973Z,28.70
2022-08-03T22:16:35.176Z,28.80
2022-08-03T22:19:03.464Z,29.00
2022-08-03T22:21:35.938Z,28.70
2022-08-03T22:24:07.248Z,28.50
2022-08-03T22:26:37.445Z,28.50
2022-08-03T22:29:08.795Z,28.70
2022-08-03T22:31:58.329Z,28.50
2022-08-03T22:34:28.006Z,28.40
2022-08-03T22:37:02.592Z,28.60
2022-08-03T22:39:31.486Z,28.50
2022-08-03T22:42:01.156Z,28.70
2022-08-03T22:44:30.352Z,28.40
2022-08-03T22:46:59.763Z,28.50
2022-08-03T22:49:29.456Z,29.00
2022-08-03T22:51:58.949Z,28.70
2022-08-03T22:54:27.012Z,28.40
2022-08-03T22:56:55.140Z,28.60
2022-08-03T22:59:41.295Z,28.70
2022-08-03T23:02:21.305Z,28.60
2022-08-03T23:04:52.392Z,28.50
2022-08-03T23:07:32.029Z,28.70
2022-08-03T23:10:03.352Z,28.50
2022-08-03T23:12:35.860Z,28.60
2022-08-03T23:15:09.178Z,28.60
2022-08-03T23:17:58.191Z,28.50
2022-08-03T23:20:29.101Z,28.40
2022-08-03T23:22:58.579Z,28.80
2022-08-03T23:25:27.528Z,28.40
2022-08-03T23:28:04.820Z,28.40
2022-08-03T23:30:38.272Z,28.60
2022-08-03T23:33:07.613Z,28.50
2022-08-03T23:36:27.532Z,28.50
2022-08-03T23:38:42.752Z,28.50
2022-08-03T23:41:11.376Z,28.40
2022-08-03T23:43:51.140Z,28.60
2022-08-03T23:46:23.248Z,28.50
2022-08-03T23:48:51.665Z,28.40
2022-08-03T23:51:38.077Z,28.50
2022-08-03T23:54:19.269Z,28.50
2022-08-03T23:56:55.409Z,28.40
2022-08-03T23:59:33.383Z,28.50
